Time;durP1;ratioP1;P1;durP2;ratioP2;P2;SDS_P1;SDS_P2;PMS_P1;PMS_P2;Temp;Humidity;BMP_temperature;BMP_pressure;BME280_temperature;BME280_humidity;BME280_pressure;Samples;Min_cycle;Max_cycle;Signal;HPM_P1;HPM_P2
2023/09/19 00:01:41;;;;;;;13.23;3.22;;;;;;;15.44;92.11;100627.94;4990504;28;20042;-78
2023/09/19 00:04:09;;;;;;;13.65;3.25;;;;;;;15.41;91.60;100627.25;4969421;28;20511;-77
2023/09/19 00:06:37;;;;;;;14.23;3.30;;;;;;;15.40;92.04;100628.19;4988318;28;20263;-77
2023/09/19 00:09:05;;;;;;;14.68;2.83;;;;;;;15.38;91.86;100633.59;4990310;28;20096;-77
2023/09/19 00:11:34;;;;;;;13.20;3.22;;;;;;;15.35;91.75;100628.44;5004757;28;20042;-77
2023/09/19 00:14:01;;;;;;;14.25;3.40;;;;;;;15.36;92.63;100638.13;4970882;28;20677;-72
2023/09/19 00:16:28;;;;;;;12.60;2.63;;;;;;;15.37;92.54;100640.69;4988756;28;20405;-76
2023/09/19 00:18:55;;;;;;;11.70;2.58;;;;;;;15.42;92.58;100644.91;4988202;28;20094;-76
2023/09/19 00:21:22;;;;;;;13.30;2.88;;;;;;;15.43;92.66;100647.47;4988326;28;20043;-77
2023/09/19 00:23:51;;;;;;;12.20;2.65;;;;;;;15.43;92.72;100651.94;5003968;28;20089;-77
2023/09/19 00:26:18;;;;;;;11.00;2.75;;;;;;;15.40;92.49;100649.44;4988235;28;20049;-75
2023/09/19 00:28:48;;;;;;;11.75;2.72;;;;;;;15.34;92.44;100651.50;4988084;28;20128;-78
2023/09/19 00:31:15;;;;;;;15.25;2.60;;;;;;;15.31;92.20;100648.16;4987105;28;20046;-78
2023/09/19 00:33:42;;;;;;;10.98;2.83;;;;;;;15.25;92.89;100643.16;4985907;28;20058;-78
2023/09/19 00:36:09;;;;;;;12.77;2.60;;;;;;;15.21;93.10;100655.75;4986728;28;20038;-78
2023/09/19 00:38:36;;;;;;;12.68;2.85;;;;;;;15.16;92.89;100655.13;4988886;28;20069;-78
2023/09/19 00:41:04;;;;;;;8.45;2.22;;;;;;;15.12;93.18;100653.56;4987845;28;20051;-78
2023/09/19 00:43:34;;;;;;;11.48;2.72;;;;;;;15.07;92.90;100648.50;4989127;28;20035;-78
2023/09/19 00:46:04;;;;;;;13.05;2.60;;;;;;;15.05;93.63;100647.72;4989423;28;20163;-78
2023/09/19 00:48:41;;;;;;;14.20;2.67;;;;;;;15.06;93.56;100658.25;4988661;28;20035;-78
2023/09/19 00:51:09;;;;;;;12.88;2.90;;;;;;;15.04;93.25;100661.91;5002819;28;20050;-77
2023/09/19 00:53:37;;;;;;;12.07;2.90;;;;;;;14.98;93.43;100672.88;5005088;28;20108;-77
2023/09/19 00:56:06;;;;;;;12.27;2.53;;;;;;;14.98;93.75;100664.91;4990382;28;20053;-77
2023/09/19 00:58:37;;;;;;;11.95;2.78;;;;;;;14.99;93.83;100669.28;4983586;28;20043;-79
2023/09/19 01:01:06;;;;;;;8.13;2.58;;;;;;;14.97;93.24;100668.50;4968120;28;20070;-79
2023/09/19 01:03:37;;;;;;;12.00;2.75;;;;;;;14.91;93.42;100675.81;4981376;28;20130;-79
2023/09/19 01:06:07;;;;;;;11.73;2.83;;;;;;;14.87;93.14;100676.94;4984249;28;20224;-80
2023/09/19 01:08:36;;;;;;;11.38;2.90;;;;;;;14.84;93.27;100677.09;4983935;28;20042;-77
2023/09/19 01:11:19;;;;;;;9.98;2.33;;;;;;;14.83;93.25;100691.28;4998225;28;20132;-77
2023/09/19 01:14:24;;;;;;;14.45;2.60;;;;;;;14.81;93.05;100690.50;4981812;28;20039;-77
2023/09/19 01:17:23;;;;;;;12.88;2.78;;;;;;;14.79;92.83;100695.03;4982032;28;20104;-77
2023/09/19 01:20:33;;;;;;;12.85;2.72;;;;;;;14.77;93.04;100688.06;4988075;28;20156;-77
2023/09/19 01:23:14;;;;;;;13.18;2.85;;;;;;;14.74;93.20;100691.75;4988127;28;20053;-77
2023/09/19 01:26:15;;;;;;;12.30;2.60;;;;;;;14.72;93.02;100702.44;4988814;28;20048;-77
2023/09/19 01:29:01;;;;;;;13.73;2.75;;;;;;;14.71;92.65;100697.19;4997546;28;20446;-77
2023/09/19 01:31:35;;;;;;;12.50;2.55;;;;;;;14.67;92.72;100699.16;4985398;28;20043;-77
2023/09/19 01:34:07;;;;;;;;;;;;;;;14.65;92.70;100697.47;5001294;28;20063;-76
2023/09/19 01:36:36;;;;;;;9.85;2.45;;;;;;;14.65;92.74;100697.47;4977461;28;19932;-76
2023/09/19 01:39:10;;;;;;;11.65;2.33;;;;;;;14.66;92.34;100707.16;4988355;28;20053;-77
2023/09/19 01:41:41;;;;;;;;;;;;;;;14.66;92.50;100702.69;4986959;28;20085;-78
2023/09/19 01:44:21;;;;;;;11.88;2.58;;;;;;;14.67;91.99;100701.81;4986415;28;19925;-76
2023/09/19 01:46:48;;;;;;;9.40;2.40;;;;;;;14.69;91.06;100718.50;5002732;28;20501;-77
2023/09/19 01:49:43;;;;;;;12.52;2.45;;;;;;;14.71;91.37;100700.72;4983911;28;20064;-77
2023/09/19 01:52:19;;;;;;;9.32;2.22;;;;;;;14.71;90.38;100721.94;4982886;28;20042;-79
2023/09/19 01:54:53;;;;;;;9.73;2.50;;;;;;;14.72;90.22;100717.50;4976527;28;20035;-80
2023/09/19 01:57:37;;;;;;;13.52;2.67;;;;;;;14.70;90.68;100720.22;4986560;28;20038;-80
2023/09/19 02:00:11;;;;;;;14.45;2.78;;;;;;;14.68;89.59;100722.09;4983354;28;20046;-78
2023/09/19 02:02:44;;;;;;;12.18;2.83;;;;;;;14.66;89.55;100715.97;4971304;28;20085;-78
2023/09/19 02:05:12;;;;;;;8.60;2.45;;;;;;;14.62;89.02;100717.06;4986559;28;20451;-79
2023/09/19 02:07:40;;;;;;;11.82;2.30;;;;;;;14.60;89.04;100718.94;4983719;28;20684;-79
2023/09/19 02:10:10;;;;;;;10.57;2.38;;;;;;;14.57;89.25;100722.59;4966525;28;20125;-78
2023/09/19 02:12:38;;;;;;;8.07;2.47;;;;;;;14.55;89.08;100724.47;4985750;28;20042;-77
2023/09/19 02:15:06;;;;;;;9.77;3.03;;;;;;;14.51;88.93;100724.69;4996355;28;20070;-77
2023/09/19 02:17:34;;;;;;;8.30;2.40;;;;;;;14.48;88.70;100724.84;4980311;28;20156;-78
2023/09/19 02:20:10;;;;;;;11.05;2.30;;;;;;;14.45;88.56;100729.34;4985941;28;20046;-78
2023/09/19 02:22:38;;;;;;;15.02;2.70;;;;;;;14.45;88.45;100731.16;4984477;28;20046;-77
2023/09/19 02:25:07;;;;;;;11.73;2.40;;;;;;;14.43;88.53;100728.59;4985198;28;20077;-77
2023/09/19 02:27:36;;;;;;;15.48;2.80;;;;;;;14.43;88.31;100733.88;4984768;28;20129;-77
2023/09/19 02:30:06;;;;;;;12.43;2.67;;;;;;;14.41;88.40;100737.53;4991866;28;20479;-78
2023/09/19 02:32:36;;;;;;;10.88;2.38;;;;;;;14.41;88.16;100742.81;4984668;28;20050;-78
2023/09/19 02:35:04;;;;;;;13.90;2.47;;;;;;;14.39;88.16;100750.03;4999496;28;20109;-79
2023/09/19 02:37:32;;;;;;;10.98;2.38;;;;;;;14.40;86.88;100746.41;4999121;28;20468;-78
2023/09/19 02:40:00;;;;;;;10.40;2.17;;;;;;;14.35;86.69;100732.53;4986304;28;20050;-78
2023/09/19 02:42:27;;;;;;;12.77;2.80;;;;;;;14.34;87.32;100738.75;4984732;28;20132;-77
2023/09/19 02:44:54;;;;;;;10.55;2.13;;;;;;;14.32;87.53;100744.16;4986791;28;20442;-76
2023/09/19 02:47:21;;;;;;;13.68;2.80;;;;;;;14.30;87.37;100740.69;4986813;28;20073;-76
2023/09/19 02:49:48;;;;;;;11.45;2.70;;;;;;;14.28;87.66;100747.88;4969073;28;20439;-77
2023/09/19 02:52:15;;;;;;;9.93;2.35;;;;;;;14.25;87.14;100738.28;4980573;28;20121;-77
2023/09/19 02:54:44;;;;;;;12.18;2.70;;;;;;;14.21;87.56;100744.63;4970013;28;20061;-77
2023/09/19 02:57:13;;;;;;;8.93;2.47;;;;;;;14.19;87.81;100753.59;4985542;28;20049;-77
2023/09/19 02:59:42;;;;;;;15.10;2.60;;;;;;;14.14;87.34;100737.91;4987539;28;20045;-77
2023/09/19 03:02:09;;;;;;;10.50;2.70;;;;;;;14.12;87.49;100745.94;4984842;28;20043;-77
2023/09/19 03:04:37;;;;;;;10.68;2.38;;;;;;;14.09;86.96;100746.09;4984805;28;20950;-78
2023/09/19 03:07:04;;;;;;;9.85;2.58;;;;;;;14.06;87.07;100750.66;4982901;28;20307;-77
2023/09/19 03:09:31;;;;;;;11.90;2.72;;;;;;;14.02;87.58;100754.38;4986217;28;20121;-76
2023/09/19 03:11:59;;;;;;;11.95;2.25;;;;;;;14.00;87.68;100757.13;4997419;28;20541;-77
2023/09/19 03:14:30;;;;;;;7.90;2.22;;;;;;;13.95;87.47;100757.31;4979843;28;20042;-77
2023/09/19 03:16:59;;;;;;;10.75;2.50;;;;;;;13.94;87.56;100758.25;5002712;28;20046;-77
2023/09/19 03:19:27;;;;;;;12.18;2.55;;;;;;;13.92;86.46;100761.91;5001738;28;20129;-78
2023/09/19 03:21:57;;;;;;;9.50;2.40;;;;;;;13.90;86.68;100756.66;4967980;28;20097;-77
2023/09/19 03:24:24;;;;;;;13.93;2.58;;;;;;;13.89;86.93;100762.88;4968552;28;20530;-77
2023/09/19 03:26:52;;;;;;;10.45;2.28;;;;;;;13.88;86.98;100760.31;4983877;28;20057;-78
2023/09/19 03:29:19;;;;;;;12.20;2.63;;;;;;;13.86;86.75;100757.75;4998131;28;20051;-77
2023/09/19 03:31:46;;;;;;;12.25;2.70;;;;;;;13.86;86.66;100765.69;5002940;28;20116;-78
2023/09/19 03:34:13;;;;;;;10.80;2.50;;;;;;;13.83;86.44;100763.19;4976348;28;20570;-78
2023/09/19 03:36:41;;;;;;;7.35;2.50;;;;;;;13.85;86.57;100765.75;4985376;28;20647;-77
2023/09/19 03:39:08;;;;;;;11.48;2.45;;;;;;;13.84;86.86;100764.91;4985950;28;20035;-78
2023/09/19 03:41:36;;;;;;;10.88;2.40;;;;;;;13.84;86.05;100769.34;4985556;28;20049;-78
2023/09/19 03:44:04;;;;;;;9.20;2.50;;;;;;;13.82;85.42;100759.69;5001258;28;20128;-78
2023/09/19 03:46:32;;;;;;;11.02;2.45;;;;;;;13.81;86.06;100760.59;4986092;28;20057;-78
2023/09/19 03:48:59;;;;;;;9.85;2.28;;;;;;;13.80;86.18;100761.53;4984128;28;20663;-78
2023/09/19 03:51:27;;;;;;;10.70;2.38;;;;;;;13.80;86.11;100752.72;4985507;28;20072;-77
2023/09/19 03:53:54;;;;;;;8.45;2.20;;;;;;;13.81;86.31;100754.44;4983961;28;20525;-77
2023/09/19 03:56:21;;;;;;;8.25;2.03;;;;;;;13.81;85.96;100746.47;5002303;28;20050;-77
2023/09/19 03:58:49;;;;;;;8.30;2.33;;;;;;;13.84;85.27;100761.41;4984957;28;20411;-80
2023/09/19 04:01:18;;;;;;;9.50;2.15;;;;;;;13.84;84.68;100750.81;4983438;28;20046;-78
2023/09/19 04:03:46;;;;;;;10.02;2.40;;;;;;;13.81;85.17;100752.66;4999494;28;20602;-78
2023/09/19 04:06:15;;;;;;;11.55;2.28;;;;;;;13.81;85.39;100757.09;4983440;28;20136;-78
2023/09/19 04:08:44;;;;;;;16.00;2.50;;;;;;;13.80;85.33;100761.53;4982308;28;20125;-78
2023/09/19 04:11:11;;;;;;;8.82;2.67;;;;;;;13.79;85.15;100753.63;4983912;28;20054;-75
2023/09/19 04:13:38;;;;;;;10.25;2.53;;;;;;;13.77;85.09;100758.16;4984837;28;20058;-75
2023/09/19 04:16:10;;;;;;;11.57;2.30;;;;;;;13.78;85.92;100757.25;4984951;28;20070;-76
2023/09/19 04:18:39;;;;;;;14.93;3.13;;;;;;;13.80;85.37;100756.22;4983123;28;20134;-76
2023/09/19 04:21:06;;;;;;;13.88;2.60;;;;;;;13.79;85.79;100756.28;4970677;28;20042;-76
2023/09/19 04:23:34;;;;;;;9.68;2.22;;;;;;;13.78;85.89;100755.44;4984552;28;20065;-76
2023/09/19 04:26:06;;;;;;;8.18;2.03;;;;;;;13.74;85.57;100763.59;4981536;28;20050;-76
2023/09/19 04:28:36;;;;;;;12.38;2.45;;;;;;;13.72;85.90;100773.41;5000888;28;20042;-75
2023/09/19 04:31:03;;;;;;;11.05;2.47;;;;;;;13.69;86.67;100770.88;4998918;28;20042;-78
2023/09/19 04:33:30;;;;;;;17.63;2.75;;;;;;;13.67;86.29;100781.53;4995827;28;20685;-78
2023/09/19 04:35:57;;;;;;;11.02;2.47;;;;;;;13.65;86.70;100778.09;4980477;28;20034;-78
2023/09/19 04:38:34;;;;;;;12.90;2.72;;;;;;;13.63;86.59;100782.63;4983666;28;20050;-77
2023/09/19 04:41:01;;;;;;;8.60;2.38;;;;;;;13.58;86.60;100787.25;4980953;28;20043;-78
2023/09/19 04:43:30;;;;;;;12.15;2.60;;;;;;;13.58;86.37;100801.34;4976008;28;20114;-76
2023/09/19 04:46:00;;;;;;;12.10;2.63;;;;;;;13.56;86.80;100800.56;4984537;28;20046;-77
2023/09/19 04:48:29;;;;;;;9.68;2.40;;;;;;;13.59;86.79;100820.75;4982760;28;20049;-77
2023/09/19 04:50:56;;;;;;;9.07;2.30;;;;;;;13.57;86.90;100822.59;4985919;28;20100;-77
2023/09/19 04:53:23;;;;;;;10.98;2.33;;;;;;;13.59;86.92;100831.34;4996513;28;20088;-78
2023/09/19 04:55:52;;;;;;;10.57;2.20;;;;;;;13.64;87.83;100827.59;4988119;28;20121;-80
2023/09/19 04:58:20;;;;;;;12.40;2.42;;;;;;;13.72;87.28;100829.03;5004252;28;20042;-79
2023/09/19 05:00:47;;;;;;;11.50;2.70;;;;;;;13.77;87.93;100829.69;4990157;28;20046;-80
2023/09/19 05:03:14;;;;;;;12.77;2.35;;;;;;;13.84;87.71;100832.94;4984050;28;20043;-80
2023/09/19 05:05:42;;;;;;;7.38;2.20;;;;;;;13.88;87.42;100835.38;4985007;28;20403;-78
2023/09/19 05:08:09;;;;;;;11.88;2.28;;;;;;;13.92;87.80;100834.31;5010816;28;20498;-80
2023/09/19 05:10:37;;;;;;;10.90;2.45;;;;;;;13.96;87.12;100840.31;4986162;28;20632;-75
2023/09/19 05:13:05;;;;;;;10.45;2.58;;;;;;;13.94;86.53;100827.16;4984767;28;20053;-75
2023/09/19 05:15:32;;;;;;;16.58;2.67;;;;;;;13.90;87.44;100827.38;4977083;28;20050;-74
2023/09/19 05:17:59;;;;;;;9.15;2.22;;;;;;;13.90;87.31;100835.31;4966838;28;20140;-75
2023/09/19 05:20:29;;;;;;;12.10;2.55;;;;;;;13.90;87.43;100838.81;4988429;28;20046;-74
2023/09/19 05:23:02;;;;;;;10.18;2.55;;;;;;;13.90;87.09;100838.81;5011977;28;20042;-76
2023/09/19 05:25:32;;;;;;;11.65;2.20;;;;;;;13.88;86.88;100835.38;5001301;28;20042;-75
2023/09/19 05:28:03;;;;;;;9.20;2.17;;;;;;;13.90;87.04;100836.16;4986460;28;20133;-75
2023/09/19 05:30:38;;;;;;;10.48;2.67;;;;;;;13.90;87.52;100841.47;4984828;28;20053;-74
2023/09/19 05:33:07;;;;;;;16.48;2.38;;;;;;;13.92;87.68;100838.75;4996359;28;20051;-74
2023/09/19 05:35:39;;;;;;;11.77;2.60;;;;;;;13.92;87.67;100836.97;4989129;28;20129;-74
2023/09/19 05:38:08;;;;;;;12.25;2.55;;;;;;;13.94;87.88;100831.56;4983249;28;20039;-74
2023/09/19 05:40:36;;;;;;;10.98;2.40;;;;;;;13.95;87.39;100836.84;4980089;28;20069;-75
2023/09/19 05:43:05;;;;;;;12.27;2.90;;;;;;;13.97;87.46;100837.63;4994071;28;20042;-74
2023/09/19 05:45:33;;;;;;;14.95;3.08;;;;;;;13.98;87.18;100835.81;4988490;28;20507;-75
2023/09/19 05:48:15;;;;;;;11.02;2.63;;;;;;;13.99;87.26;100834.91;4997587;28;20203;-75
2023/09/19 05:50:44;;;;;;;8.32;2.35;;;;;;;14.01;86.92;100832.16;5016258;28;20114;-74
2023/09/19 05:53:14;;;;;;;14.70;2.90;;;;;;;14.02;87.01;100836.53;4982298;28;20038;-75
2023/09/19 05:55:42;;;;;;;13.80;2.83;;;;;;;14.05;86.95;100839.06;4986325;28;20488;-75
2023/09/19 05:58:10;;;;;;;11.68;2.67;;;;;;;14.06;87.39;100841.63;4986582;28;20126;-74
2023/09/19 06:00:37;;;;;;;15.48;2.80;;;;;;;14.10;87.46;100835.28;4972152;28;20109;-75
2023/09/19 06:03:06;;;;;;;13.25;2.80;;;;;;;14.09;87.75;100838.84;4986550;28;20202;-75
2023/09/19 06:05:33;;;;;;;11.45;2.38;;;;;;;14.14;87.73;100834.19;4980356;28;20052;-74
2023/09/19 06:08:00;;;;;;;10.50;2.28;;;;;;;14.19;87.44;100834.00;5013861;28;20521;-74
2023/09/19 06:10:29;;;;;;;11.93;2.40;;;;;;;14.19;87.78;100835.78;4987839;28;20173;-74
2023/09/19 06:12:57;;;;;;;14.25;3.05;;;;;;;14.22;87.48;100836.50;4996131;28;20065;-74
2023/09/19 06:15:25;;;;;;;13.70;2.65;;;;;;;14.28;87.50;100841.53;4999848;28;20050;-75
2023/09/19 06:17:55;;;;;;;9.48;2.55;;;;;;;14.34;87.15;100844.84;4987274;28;20129;-74
2023/09/19 06:20:25;;;;;;;18.42;2.80;;;;;;;14.39;86.91;100840.19;4985859;28;20136;-75
2023/09/19 06:22:53;;;;;;;11.07;2.80;;;;;;;14.43;87.01;100837.31;4985036;28;20046;-75
2023/09/19 06:25:21;;;;;;;12.93;2.45;;;;;;;14.47;87.06;100837.16;4986450;28;20043;-74
2023/09/19 06:27:55;;;;;;;12.68;2.75;;;;;;;14.55;86.97;100846.50;4987897;28;20074;-74
2023/09/19 06:30:24;;;;;;;8.05;2.25;;;;;;;14.59;86.30;100840.13;5001635;28;20049;-75
2023/09/19 06:32:57;;;;;;;11.88;2.30;;;;;;;14.65;86.53;100846.06;4988324;28;20089;-75
2023/09/19 06:35:29;;;;;;;10.25;2.78;;;;;;;14.71;86.57;100851.09;4986808;28;20479;-75
2023/09/19 06:37:57;;;;;;;10.18;2.55;;;;;;;14.77;86.72;100856.13;4986337;28;20046;-75
2023/09/19 06:40:25;;;;;;;12.82;2.72;;;;;;;14.83;85.64;100855.81;4979785;28;20157;-75
2023/09/19 06:42:53;;;;;;;8.88;2.22;;;;;;;14.87;85.81;100856.53;4969381;28;20379;-76
2023/09/19 06:45:21;;;;;;;12.68;2.40;;;;;;;14.92;85.44;100862.50;4973873;28;20098;-75
2023/09/19 06:47:51;;;;;;;13.05;2.20;;;;;;;14.96;85.59;100871.16;4988865;28;20042;-74
2023/09/19 06:50:22;;;;;;;11.82;2.80;;;;;;;15.00;85.63;100870.94;4986737;28;20112;-74
2023/09/19 06:52:51;;;;;;;14.25;2.75;;;;;;;15.05;85.34;100878.69;4988061;28;20125;-75
2023/09/19 06:55:20;;;;;;;12.73;2.78;;;;;;;15.09;85.21;100877.59;4988395;28;20046;-74
2023/09/19 06:57:48;;;;;;;13.02;2.70;;;;;;;15.15;84.97;100877.28;4987524;28;20266;-75
2023/09/19 07:00:21;;;;;;;14.90;2.95;;;;;;;15.21;85.05;100869.00;4986088;28;20052;-75
2023/09/19 07:03:00;;;;;;;10.82;2.42;;;;;;;15.28;84.81;100872.22;5017951;28;20046;-75
2023/09/19 07:05:28;;;;;;;12.88;2.85;;;;;;;15.31;84.70;100881.88;4988713;28;20046;-76
2023/09/19 07:07:58;;;;;;;12.98;2.47;;;;;;;15.33;84.72;100867.56;5002528;28;20053;-75
2023/09/19 07:10:28;;;;;;;10.98;2.78;;;;;;;15.36;84.75;100854.09;4987405;28;20129;-75
2023/09/19 07:13:00;;;;;;;10.20;2.42;;;;;;;15.41;84.64;100864.53;4987556;28;20054;-75
2023/09/19 07:15:30;;;;;;;11.55;2.80;;;;;;;15.45;84.03;100874.06;4989207;28;20111;-75
2023/09/19 07:17:57;;;;;;;15.73;2.28;;;;;;;15.48;83.88;100865.06;5008069;28;20056;-75
2023/09/19 07:20:31;;;;;;;14.90;2.92;;;;;;;15.50;83.75;100881.78;4984132;28;20042;-75
2023/09/19 07:23:01;;;;;;;10.90;2.30;;;;;;;15.55;84.35;100871.81;4977707;28;20189;-75
2023/09/19 07:25:29;;;;;;;10.77;2.40;;;;;;;15.61;84.86;100884.75;5001726;28;20046;-75
2023/09/19 07:28:00;;;;;;;10.65;2.45;;;;;;;15.70;84.41;100886.09;4983315;28;20054;-75
2023/09/19 07:30:28;;;;;;;15.70;2.58;;;;;;;15.77;83.76;100878.69;4982919;28;20060;-75
2023/09/19 07:32:56;;;;;;;10.90;2.50;;;;;;;15.78;84.07;100878.59;5001672;28;20108;-74
2023/09/19 07:35:23;;;;;;;9.98;2.28;;;;;;;15.80;84.04;100887.34;4987093;28;20595;-75
2023/09/19 07:37:54;;;;;;;10.77;2.63;;;;;;;15.83;84.07;100888.97;4985081;28;20049;-75
2023/09/19 07:40:26;;;;;;;13.40;2.83;;;;;;;15.89;83.58;100887.84;4984381;28;20511;-75
2023/09/19 07:42:54;;;;;;;16.23;2.70;;;;;;;15.91;83.00;100891.28;4984583;28;20514;-75
2023/09/19 07:45:21;;;;;;;12.43;2.47;;;;;;;15.95;83.99;100895.47;5001675;28;20121;-75
2023/09/19 07:47:50;;;;;;;11.82;3.00;;;;;;;16.03;83.52;100881.78;4965596;28;20836;-75
2023/09/19 07:50:19;;;;;;;11.88;2.38;;;;;;;16.06;82.99;100890.47;4976428;28;20249;-75
2023/09/19 07:52:50;;;;;;;10.68;2.47;;;;;;;16.11;83.00;100885.78;5000179;28;20050;-76
2023/09/19 07:55:19;;;;;;;11.15;2.63;;;;;;;16.17;82.71;100887.25;4984816;28;20133;-75
2023/09/19 07:57:47;;;;;;;12.55;2.72;;;;;;;16.25;82.91;100887.69;4985599;28;20078;-75
2023/09/19 08:00:15;;;;;;;14.95;2.72;;;;;;;16.29;81.66;100883.91;5001690;28;20065;-75
2023/09/19 08:02:43;;;;;;;12.50;2.88;;;;;;;16.37;81.64;100891.50;4999803;28;20046;-75
2023/09/19 08:05:12;;;;;;;18.60;3.03;;;;;;;16.47;81.18;100881.22;4976728;28;20039;-75
2023/09/19 08:07:42;;;;;;;16.25;3.22;;;;;;;16.55;80.71;100889.66;4976972;28;20073;-75
2023/09/19 08:10:15;;;;;;;13.27;2.50;;;;;;;16.67;80.34;100895.25;4986070;28;20447;-75
2023/09/19 08:12:46;;;;;;;12.18;2.78;;;;;;;16.74;80.45;100899.28;5000718;28;20054;-75
2023/09/19 08:15:19;;;;;;;14.63;2.90;;;;;;;16.91;81.25;100901.84;4967759;28;20491;-75
2023/09/19 08:17:48;;;;;;;19.58;2.40;;;;;;;17.06;79.80;100894.81;5001781;28;20050;-75
2023/09/19 08:20:19;;;;;;;13.15;2.40;;;;;;;17.19;79.16;100892.34;4986551;28;20049;-75
2023/09/19 08:22:56;;;;;;;12.93;2.80;;;;;;;17.25;78.36;100896.44;4983964;28;20034;-75
2023/09/19 08:25:28;;;;;;;15.23;2.72;;;;;;;17.30;77.62;100888.16;4989308;28;20129;-75
2023/09/19 08:27:57;;;;;;;12.50;2.65;;;;;;;17.35;78.39;100888.78;4990761;28;20050;-75
2023/09/19 08:30:26;;;;;;;15.55;2.67;;;;;;;17.42;78.45;100884.81;4989408;28;20042;-75
2023/09/19 08:33:00;;;;;;;13.57;2.53;;;;;;;17.47;76.74;100889.84;5005101;28;20086;-75
2023/09/19 08:35:28;;;;;;;15.02;2.78;;;;;;;17.50;76.97;100900.34;4990224;28;20050;-75
2023/09/19 08:37:56;;;;;;;15.82;2.72;;;;;;;17.56;76.11;100896.47;4990527;28;20058;-75
2023/09/19 08:40:24;;;;;;;9.73;2.47;;;;;;;17.59;76.23;100899.81;5004197;28;20450;-75
2023/09/19 08:42:55;;;;;;;10.98;2.55;;;;;;;17.68;76.97;100904.59;4988881;28;20050;-75
2023/09/19 08:45:27;;;;;;;15.90;3.00;;;;;;;17.79;76.37;100898.63;4988892;28;20402;-75
2023/09/19 08:48:27;;;;;;;11.95;2.65;;;;;;;17.86;75.39;100904.44;4988194;28;20066;-75
2023/09/19 08:51:07;;;;;;;12.38;2.60;;;;;;;17.77;74.77;100897.00;4987332;28;20123;-75
2023/09/19 08:54:07;;;;;;;14.15;2.75;;;;;;;17.80;75.48;100908.34;4970863;28;20046;-75
2023/09/19 08:56:39;;;;;;;14.07;2.47;;;;;;;17.87;74.77;100891.97;4998151;28;20038;-75
2023/09/19 08:59:07;;;;;;;11.50;2.75;;;;;;;17.93;74.73;100896.94;4988451;28;20061;-75
2023/09/19 09:01:35;;;;;;;14.18;2.97;;;;;;;18.02;74.71;100898.22;4990048;28;20046;-75
2023/09/19 09:04:08;;;;;;;12.50;2.88;;;;;;;18.02;74.89;100901.72;4990723;28;20502;-75
2023/09/19 09:06:39;;;;;;;17.08;3.20;;;;;;;18.10;74.77;100896.81;4988795;28;20069;-75
2023/09/19 09:09:09;;;;;;;13.75;2.75;;;;;;;18.25;74.24;100899.47;4987331;28;20043;-76
2023/09/19 09:11:39;;;;;;;14.07;2.83;;;;;;;18.35;72.42;100897.94;4988094;28;20050;-75
2023/09/19 09:14:07;;;;;;;10.70;2.47;;;;;;;18.42;72.68;100895.75;4989543;28;20232;-75
2023/09/19 09:16:34;;;;;;;14.77;2.45;;;;;;;18.51;70.09;100899.69;4987028;28;20061;-75
2023/09/19 09:19:02;;;;;;;14.23;2.67;;;;;;;18.62;71.18;100898.03;4971673;28;20052;-76
2023/09/19 09:21:29;;;;;;;13.18;2.75;;;;;;;18.75;71.02;100894.59;4987006;28;20045;-76
2023/09/19 09:23:56;;;;;;;17.25;2.75;;;;;;;18.82;69.49;100895.06;4989210;28;20052;-75
2023/09/19 09:26:47;;;;;;;12.82;2.72;;;;;;;18.78;69.69;100891.69;4987810;28;20065;-75
2023/09/19 09:29:14;;;;;;;10.63;2.28;;;;;;;18.88;68.96;100902.66;4989206;28;20035;-75
2023/09/19 09:31:48;;;;;;;14.45;2.58;;;;;;;18.91;69.49;100902.47;4987184;28;20842;-75
2023/09/19 09:34:16;;;;;;;12.70;2.50;;;;;;;18.83;67.84;100904.75;4989336;28;20129;-75
2023/09/19 09:36:48;;;;;;;17.33;2.53;;;;;;;18.65;68.08;100901.47;4988159;28;20488;-75
2023/09/19 09:39:32;;;;;;;13.38;2.45;;;;;;;18.79;68.55;100890.75;4989392;28;20050;-76
2023/09/19 09:41:59;;;;;;;10.18;2.63;;;;;;;18.85;68.72;100893.03;4989676;28;20502;-75
2023/09/19 09:44:31;;;;;;;13.93;2.40;;;;;;;19.06;68.29;100884.63;4988503;28;20503;-75
2023/09/19 09:47:27;;;;;;;12.35;2.47;;;;;;;19.12;68.38;100889.56;5003987;28;20046;-75
2023/09/19 09:49:54;;;;;;;11.38;2.03;;;;;;;19.08;67.61;100869.31;5023285;28;20045;-76
2023/09/19 09:52:24;;;;;;;16.60;2.72;;;;;;;19.15;65.90;100870.66;4984749;28;20038;-76
2023/09/19 09:55:05;;;;;;;8.30;2.42;;;;;;;19.15;66.95;100870.66;4980384;28;20045;-76
2023/09/19 09:57:34;;;;;;;16.23;2.72;;;;;;;19.24;67.61;100864.69;4988270;28;20108;-75
2023/09/19 10:02:40;;;;;;;13.10;2.17;;;;;;;19.23;64.89;100881.69;4983255;28;20047;-76
2023/09/19 10:07:53;;;;;;;14.43;2.60;;;;;;;19.37;66.72;100869.22;4987527;28;20050;-76
2023/09/19 10:13:14;;;;;;;13.95;2.50;;;;;;;19.42;66.18;100869.75;4985674;28;19921;-76
2023/09/19 10:15:54;;;;;;;8.32;2.22;;;;;;;19.42;65.96;100872.44;4985960;28;20046;-76
2023/09/19 10:18:29;;;;;;;12.15;2.72;;;;;;;19.50;66.19;100862.06;5003074;28;20137;-76
2023/09/19 10:20:57;;;;;;;19.60;2.63;;;;;;;19.69;65.16;100868.84;4988996;28;20594;-76
2023/09/19 10:23:29;;;;;;;11.13;2.08;;;;;;;19.78;64.19;100872.72;4988114;28;20049;-76
2023/09/19 10:25:59;;;;;;;18.42;2.72;;;;;;;19.75;64.03;100860.41;5002915;28;20089;-76
2023/09/19 10:28:28;;;;;;;13.23;2.30;;;;;;;19.92;63.83;100866.44;4987030;28;20050;-76
2023/09/19 10:30:57;;;;;;;10.02;2.10;;;;;;;19.92;62.97;100871.78;4986341;28;20104;-75
2023/09/19 10:33:25;;;;;;;10.68;2.10;;;;;;;19.86;62.86;100865.91;4987269;28;20087;-75
2023/09/19 10:35:56;;;;;;;12.05;2.20;;;;;;;19.98;62.32;100866.03;4983325;28;20050;-76
2023/09/19 10:38:26;;;;;;;10.57;2.17;;;;;;;19.96;63.33;100870.63;4981672;28;20050;-75
2023/09/19 10:40:59;;;;;;;11.73;1.88;;;;;;;19.86;63.02;100868.59;4987431;28;20732;-75
2023/09/19 10:43:31;;;;;;;7.45;1.73;;;;;;;19.85;62.38;100864.19;4987725;28;20054;-76
2023/09/19 10:46:07;;;;;;;8.68;2.00;;;;;;;19.68;62.37;100862.66;4999567;28;20048;-76
2023/09/19 10:48:36;;;;;;;10.45;2.10;;;;;;;19.82;63.22;100875.06;5007600;28;20046;-75
2023/09/19 10:51:23;;;;;;;9.15;2.05;;;;;;;19.77;63.38;100866.53;4990886;28;20514;-75
2023/09/19 10:54:15;;;;;;;10.70;2.03;;;;;;;20.07;62.25;100867.19;4984318;28;20038;-76
2023/09/19 10:56:50;;;;;;;13.55;2.35;;;;;;;20.10;61.97;100865.16;5000032;28;20053;-76
2023/09/19 10:59:24;;;;;;;12.55;2.50;;;;;;;20.29;62.48;100861.19;4986457;28;20128;-76
2023/09/19 11:01:57;;;;;;;16.38;2.15;;;;;;;20.20;61.06;100870.72;4986407;28;20772;-76
2023/09/19 11:04:25;;;;;;;13.13;2.17;;;;;;;20.35;60.79;100884.00;4986901;28;20125;-76
2023/09/19 11:07:16;;;;;;;9.38;2.33;;;;;;;20.52;61.63;100856.00;4987139;28;20070;-76
2023/09/19 11:09:57;;;;;;;8.07;1.85;;;;;;;20.51;61.43;100852.47;4988104;28;20038;-76
2023/09/19 11:12:35;;;;;;;5.88;1.73;;;;;;;20.61;60.35;100855.31;4987608;28;20050;-76
2023/09/19 11:15:07;;;;;;;12.77;2.10;;;;;;;20.68;59.18;100853.06;4985609;28;20523;-76
2023/09/19 11:17:37;;;;;;;8.68;2.00;;;;;;;20.73;59.53;100850.91;4967276;28;20051;-76
2023/09/19 11:22:48;;;;;;;12.65;2.10;;;;;;;20.66;59.31;100826.41;4968387;28;20070;-76
2023/09/19 11:25:31;;;;;;;9.13;1.90;;;;;;;20.65;59.41;100832.72;4976591;28;20129;-76
2023/09/19 11:28:08;;;;;;;14.05;2.10;;;;;;;20.61;59.87;100829.41;4985894;28;20050;-76
2023/09/19 11:30:43;;;;;;;13.70;2.08;;;;;;;20.70;59.14;100822.53;4967659;28;20042;-76
2023/09/19 11:33:31;;;;;;;5.35;1.20;;;;;;;20.76;59.12;100818.56;4998450;28;20117;-76
2023/09/19 11:36:06;;;;;;;10.23;2.13;;;;;;;20.80;58.39;100814.69;4967778;28;20047;-76
2023/09/19 11:38:43;;;;;;;5.35;1.55;;;;;;;20.90;56.98;100805.00;4981614;28;20086;-75
2023/09/19 11:41:20;;;;;;;7.78;1.85;;;;;;;21.15;58.22;100810.34;4968611;28;20047;-76
2023/09/19 11:43:50;;;;;;;7.68;1.85;;;;;;;21.27;57.76;100817.44;4976277;28;20125;-76
2023/09/19 11:46:23;;;;;;;6.10;1.60;;;;;;;21.31;56.25;100808.22;4999037;28;20026;-76
2023/09/19 11:48:52;;;;;;;8.48;1.70;;;;;;;21.42;56.02;100791.28;5007113;28;20046;-76